createdAt,value
2019-04-28T04:44:57.023Z,5.90
2019-04-28T04:47:32.926Z,5.90
2019-04-28T04:50:03.670Z,6.00
2019-04-28T04:52:34.247Z,6.00
2019-04-28T04:55:04.729Z,6.10
2019-04-28T04:57:35.240Z,6.20
2019-04-28T05:00:10.107Z,6.20
2019-04-28T05:02:52.131Z,6.10
2019-04-28T05:05:30.370Z,6.00
2019-04-28T05:08:00.938Z,6.00
2019-04-28T05:10:31.502Z,6.00
2019-04-28T05:13:02.050Z,6.30
2019-04-28T05:15:32.590Z,6.20
2019-04-28T05:18:03.188Z,6.10
2019-04-28T05:20:33.724Z,6.00
2019-04-28T05:23:35.097Z,6.00
2019-04-28T05:26:07.964Z,5.90
2019-04-28T05:28:44.065Z,5.90
2019-04-28T05:31:13.875Z,6.10
2019-04-28T05:33:42.257Z,5.90
2019-04-28T05:36:12.834Z,6.00
2019-04-28T05:38:43.379Z,5.90
2019-04-28T05:41:13.880Z,5.90
2019-04-28T05:43:44.459Z,6.20
2019-04-28T05:46:14.875Z,6.20
2019-04-28T05:49:02.828Z,6.20
2019-04-28T05:51:34.781Z,6.20
2019-04-28T05:54:24.254Z,6.50
2019-04-28T05:57:20.677Z,6.40
2019-04-28T06:00:10.696Z,6.40
2019-04-28T06:02:54.191Z,6.40
2019-04-28T06:05:16.845Z,6.60
2019-04-28T06:08:04.793Z,6.80
2019-04-28T06:10:35.309Z,7.20
2019-04-28T06:13:05.990Z,7.20
2019-04-28T06:15:43.974Z,7.50
2019-04-28T06:18:14.547Z,7.50
2019-04-28T06:20:49.677Z,7.70
2019-04-28T06:23:20.863Z,8.10
2019-04-28T06:25:51.445Z,8.20
2019-04-28T06:28:22.030Z,8.30
2019-04-28T06:30:55.447Z,8.10
2019-04-28T06:33:26.108Z,7.70
2019-04-28T06:35:56.683Z,7.90
2019-04-28T06:38:27.230Z,8.10
2019-04-28T06:40:57.803Z,8.20
2019-04-28T06:43:28.433Z,8.20
2019-04-28T06:45:59.227Z,8.50
2019-04-28T06:48:29.866Z,8.50
2019-04-28T06:51:00.537Z,8.60
2019-04-28T06:53:31.167Z,8.50
2019-04-28T06:56:01.844Z,8.50
2019-04-28T07:05:28.511Z,8.50
2019-04-28T07:07:59.036Z,8.50
2019-04-28T07:10:29.600Z,8.20
2019-04-28T07:13:00.263Z,8.50
2019-04-28T07:15:31.591Z,8.60
2019-04-28T07:18:02.256Z,8.30
2019-04-28T07:20:50.362Z,8.20
2019-04-28T07:23:21.028Z,8.50
2019-04-28T07:25:52.104Z,8.80
2019-04-28T07:28:25.765Z,9.10
2019-04-28T07:30:56.403Z,9.20
2019-04-28T07:33:35.887Z,9.40
2019-04-28T07:36:03.930Z,9.50
2019-04-28T07:38:35.918Z,9.10
2019-04-28T07:41:06.463Z,9.20
2019-04-28T07:43:36.934Z,9.30
2019-04-28T07:49:13.363Z,10.00
2019-04-28T07:52:01.982Z,10.10
2019-04-28T07:54:32.540Z,10.20
2019-04-28T07:57:02.995Z,10.30
2019-04-28T07:59:33.366Z,10.40
2019-04-28T08:02:03.779Z,10.20
2019-04-28T08:04:34.221Z,10.00
2019-04-28T08:07:04.655Z,10.20
2019-04-28T08:09:35.094Z,10.00
2019-04-28T08:12:05.640Z,10.20
2019-04-28T08:14:36.099Z,10.20
2019-04-28T08:17:06.655Z,10.20
2019-04-28T08:19:45.724Z,10.00
2019-04-28T08:22:18.746Z,9.80
2019-04-28T08:24:52.222Z,9.90
2019-04-28T08:27:22.660Z,9.90
2019-04-28T08:29:58.810Z,10.20
2019-04-28T08:32:33.358Z,10.30
2019-04-28T08:35:19.918Z,10.50
2019-04-28T08:37:50.773Z,10.70
2019-04-28T08:40:21.107Z,11.00
2019-04-28T08:42:51.824Z,11.00
2019-04-28T08:45:22.891Z,11.10
2019-04-28T08:47:53.765Z,11.20
2019-04-28T08:50:25.246Z,11.20
2019-04-28T08:53:13.879Z,11.20
2019-04-28T08:55:48.868Z,11.40
2019-04-28T08:58:19.336Z,11.40
2019-04-28T09:00:51.004Z,11.40
2019-04-28T09:03:21.422Z,11.30
2019-04-28T09:05:52.147Z,11.20
2019-04-28T09:08:23.188Z,11.10
2019-04-28T09:10:54.082Z,11.20
2019-04-28T09:13:24.675Z,11.50
2019-04-28T09:15:55.097Z,11.60
2019-04-28T09:18:26.086Z,11.80
2019-04-28T09:20:56.675Z,12.00
2019-04-28T09:23:28.190Z,12.00
2019-04-28T09:25:59.134Z,11.80
2019-04-28T09:28:29.759Z,12.00
2019-04-28T09:31:01.827Z,12.10
2019-04-28T09:33:32.444Z,12.00
2019-04-28T09:36:03.552Z,12.10
2019-04-28T09:38:35.126Z,12.00
2019-04-28T09:41:05.699Z,11.40
2019-04-28T09:44:00.623Z,11.70
2019-04-28T09:46:33.634Z,11.90
2019-04-28T09:49:04.245Z,12.20
2019-04-28T09:51:58.958Z,12.50
2019-04-28T09:54:54.368Z,12.60
2019-04-28T09:57:32.562Z,12.30
2019-04-28T10:00:17.900Z,12.40
2019-04-28T10:03:08.705Z,12.30
2019-04-28T10:15:53.557Z,10.90
2019-04-28T10:18:26.484Z,10.80
2019-04-28T10:21:02.694Z,11.10
2019-04-28T10:23:35.695Z,11.50
2019-04-28T10:26:10.998Z,12.30
2019-04-28T10:28:42.144Z,12.70
2019-04-28T10:31:38.749Z,12.80
2019-04-28T10:34:13.301Z,12.90
2019-04-28T10:36:44.554Z,12.60
2019-04-28T10:39:24.400Z,13.10
2019-04-28T10:41:55.554Z,13.20
2019-04-28T10:44:27.536Z,12.50
2019-04-28T10:46:58.570Z,12.60
2019-04-28T10:49:50.380Z,12.80
2019-04-28T10:52:22.906Z,12.80
2019-04-28T10:54:53.907Z,12.90
2019-04-28T10:57:24.914Z,12.50
2019-04-28T10:59:57.066Z,12.50
2019-04-28T11:02:28.079Z,12.80
2019-04-28T11:05:23.840Z,12.80
2019-04-28T11:07:55.652Z,13.10
2019-04-28T11:10:28.318Z,12.90
2019-04-28T11:13:00.480Z,12.50
2019-04-28T11:15:36.429Z,12.20
2019-04-28T11:18:09.719Z,12.20
2019-04-28T11:20:40.564Z,12.30
2019-04-28T11:23:11.358Z,12.00
2019-04-28T11:25:42.020Z,11.90
2019-04-28T11:28:12.798Z,12.20
2019-04-28T11:30:43.830Z,12.20
2019-04-28T11:33:26.751Z,12.60
2019-04-28T11:35:57.248Z,13.30
2019-04-28T11:38:28.112Z,13.90
2019-04-28T11:40:58.995Z,14.00
2019-04-28T11:43:29.530Z,14.20
2019-04-28T11:46:00.238Z,14.70
2019-04-28T11:48:30.814Z,16.10
2019-04-28T11:51:01.280Z,16.50
2019-04-28T11:53:32.156Z,16.30
2019-04-28T11:56:02.767Z,16.70
2019-04-28T11:58:33.300Z,16.80
2019-04-28T12:01:05.406Z,17.00
2019-04-28T12:03:36.051Z,17.60
2019-04-28T12:06:07.496Z,17.40
2019-04-28T12:08:37.993Z,17.60
2019-04-28T12:11:22.207Z,18.10
2019-04-28T12:14:03.157Z,18.20
2019-04-28T12:16:46.005Z,16.50
2019-04-28T12:19:21.348Z,15.70
2019-04-28T12:21:51.921Z,15.50
2019-04-28T12:24:22.390Z,15.40
2019-04-28T12:26:52.919Z,15.00
2019-04-28T12:29:23.428Z,15.40
2019-04-28T12:31:54.012Z,16.40
2019-04-28T12:34:24.519Z,16.20
2019-04-28T12:36:55.068Z,15.80
2019-04-28T12:39:26.552Z,16.30
2019-04-28T12:41:57.244Z,16.20
2019-04-28T12:44:27.826Z,16.40
2019-04-28T12:46:58.407Z,16.10
2019-04-28T12:49:34.029Z,16.70
2019-04-28T12:52:05.514Z,16.80
2019-04-28T12:54:37.722Z,16.90
2019-04-28T12:57:08.574Z,16.90
2019-04-28T12:59:47.076Z,16.20
2019-04-28T13:02:35.182Z,15.80
2019-04-28T13:05:11.317Z,15.40
2019-04-28T13:07:42.063Z,15.20
2019-04-28T13:10:24.918Z,15.50
2019-04-28T13:12:55.613Z,15.40
2019-04-28T13:15:26.125Z,15.90
2019-04-28T13:17:56.629Z,16.40
2019-04-28T13:27:50.616Z,21.40
2019-04-28T13:30:48.071Z,21.00
2019-04-28T13:33:36.787Z,22.20
2019-04-28T13:39:49.002Z,22.50
2019-04-28T13:42:35.135Z,22.50
2019-04-28T13:45:38.844Z,23.10
2019-04-28T13:48:09.511Z,23.70
2019-04-28T13:50:40.268Z,22.70
2019-04-28T13:53:13.491Z,21.80
2019-04-28T13:56:01.546Z,22.80
2019-04-28T13:58:51.391Z,22.50
2019-04-28T14:01:28.203Z,21.20
2019-04-28T14:04:13.518Z,23.00
2019-04-28T14:06:49.233Z,23.20
2019-04-28T14:09:20.061Z,23.80
2019-04-28T14:11:50.951Z,25.50
2019-04-28T14:14:21.719Z,26.50
2019-04-28T14:16:52.344Z,23.60
2019-04-28T14:19:23.457Z,22.60
2019-04-28T14:21:54.632Z,22.80
2019-04-28T14:24:25.305Z,24.70
2019-04-28T14:26:57.497Z,23.50
2019-04-28T14:29:29.547Z,22.20
2019-04-28T14:32:00.443Z,21.90
2019-04-28T14:34:31.235Z,21.70
2019-04-28T14:37:02.190Z,22.90
2019-04-28T14:39:36.083Z,24.40
2019-04-28T14:42:10.767Z,23.00
2019-04-28T14:44:41.815Z,22.10
2019-04-28T14:47:12.675Z,21.40
2019-04-28T14:49:47.119Z,19.50
2019-04-28T14:52:17.728Z,18.00
2019-04-28T14:54:48.524Z,18.00
2019-04-28T14:57:20.255Z,17.90
2019-04-28T14:59:52.826Z,17.70
2019-04-28T15:02:45.885Z,18.30
2019-04-28T15:05:39.250Z,20.10
2019-04-28T15:08:35.807Z,21.90
2019-04-28T15:11:28.967Z,24.80
2019-04-28T15:14:03.257Z,23.40
2019-04-28T15:16:34.710Z,22.90
2019-04-28T15:19:07.157Z,23.30
2019-04-28T15:21:40.629Z,24.80
2019-04-28T15:24:10.954Z,25.30
2019-04-28T15:26:42.327Z,23.80
2019-04-28T15:29:14.576Z,23.00
2019-04-28T15:31:47.031Z,21.60
2019-04-28T15:34:18.005Z,19.20
2019-04-28T15:36:51.889Z,19.50
2019-04-28T15:39:23.026Z,18.30
2019-04-28T15:41:53.946Z,18.00
2019-04-28T15:44:27.849Z,18.30
2019-04-28T15:47:00.598Z,17.40
2019-04-28T15:49:31.531Z,17.00
2019-04-28T15:52:05.303Z,16.60
2019-04-28T15:54:41.977Z,16.20
2019-04-28T15:57:14.268Z,15.80
2019-04-28T15:59:45.049Z,15.50
2019-04-28T16:02:16.563Z,15.90
2019-04-28T16:04:50.290Z,16.50
2019-04-28T16:07:25.194Z,16.70
2019-04-28T16:09:58.359Z,16.70
2019-04-28T16:12:32.586Z,16.00
2019-04-28T16:15:07.148Z,15.80
2019-04-28T16:17:37.284Z,16.20
2019-04-28T16:20:08.155Z,16.40
2019-04-28T16:22:38.865Z,15.50
2019-04-28T16:25:09.713Z,15.80
2019-04-28T16:27:41.030Z,16.00
2019-04-28T16:30:12.877Z,16.00
2019-04-28T16:32:43.975Z,16.00
2019-04-28T16:35:15.253Z,16.10
2019-04-28T16:37:46.147Z,16.00
2019-04-28T16:40:17.366Z,16.10
2019-04-28T16:42:48.092Z,15.70
2019-04-28T16:45:18.862Z,15.30
2019-04-28T16:47:49.968Z,15.20
2019-04-28T16:50:20.455Z,14.80
2019-04-28T16:52:50.984Z,14.60
2019-04-28T16:55:25.915Z,14.60
2019-04-28T16:58:14.253Z,14.50
2019-04-28T17:01:09.861Z,14.40
2019-04-28T17:03:40.646Z,14.40
2019-04-28T17:06:15.338Z,14.20
2019-04-28T17:08:46.505Z,14.10
2019-04-28T17:11:25.631Z,14.10
2019-04-28T17:13:58.926Z,13.90
2019-04-28T17:16:30.689Z,13.90
2019-04-28T17:19:05.486Z,13.90
2019-04-28T17:21:36.271Z,13.60
2019-04-28T17:24:07.583Z,13.50
2019-04-28T17:26:38.355Z,13.40
2019-04-28T17:29:09.652Z,13.40
2019-04-28T17:31:40.782Z,13.40
2019-04-28T17:34:15.182Z,13.30
2019-04-28T17:36:45.769Z,13.20
2019-04-28T17:39:19.620Z,13.30
2019-04-28T17:41:53.010Z,13.50
2019-04-28T17:44:23.635Z,13.60
2019-04-28T17:46:55.732Z,13.70
2019-04-28T17:49:52.110Z,13.80
2019-04-28T17:52:24.579Z,13.70
2019-04-28T17:54:55.264Z,13.50
2019-04-28T17:57:26.357Z,13.40
2019-04-28T17:59:58.884Z,13.20
2019-04-28T18:02:48.857Z,13.00
2019-04-28T18:05:28.825Z,12.90
2019-04-28T18:08:02.477Z,12.60
2019-04-28T18:10:37.244Z,12.60
2019-04-28T18:13:09.422Z,12.60
2019-04-28T18:16:05.855Z,12.50
2019-04-28T18:18:43.039Z,12.40
2019-04-28T18:21:21.865Z,12.40
2019-04-28T18:23:53.631Z,12.30
2019-04-28T18:26:24.298Z,12.30
2019-04-28T18:28:55.084Z,12.20
2019-04-28T18:31:40.558Z,12.10
2019-04-28T18:34:37.560Z,12.10
2019-04-28T18:37:39.504Z,12.10
2019-04-28T18:40:19.990Z,12.20
2019-04-28T18:42:57.563Z,12.20
2019-04-28T18:45:29.758Z,12.20
2019-04-28T18:48:00.810Z,12.40
2019-04-28T18:50:31.754Z,12.30
2019-04-28T18:53:03.835Z,12.30
2019-04-28T18:55:34.700Z,12.50
2019-04-28T18:58:07.761Z,12.60
2019-04-28T19:00:41.870Z,12.60
2019-04-28T19:03:12.806Z,12.70
2019-04-28T19:05:45.529Z,12.50
2019-04-28T19:08:49.040Z,12.40
2019-04-28T19:11:25.064Z,12.30
2019-04-28T19:14:02.057Z,12.10
2019-04-28T19:17:10.783Z,12.00
2019-04-28T19:19:43.990Z,12.10
2019-04-28T19:22:20.429Z,12.10
2019-04-28T19:25:16.722Z,12.00
2019-04-28T19:27:48.581Z,12.00
2019-04-28T19:30:37.621Z,12.00
2019-04-28T19:33:11.187Z,12.00
2019-04-28T19:35:45.455Z,12.10
2019-04-28T19:38:37.332Z,12.10
2019-04-28T19:41:08.390Z,12.10
2019-04-28T19:43:45.929Z,12.10
2019-04-28T19:46:21.302Z,12.20
2019-04-28T19:48:59.148Z,12.00
2019-04-28T19:51:33.060Z,12.00
2019-04-28T19:54:09.029Z,12.00
2019-04-28T19:56:55.795Z,12.10
2019-04-28T19:59:51.515Z,12.00
2019-04-28T20:02:26.725Z,12.00
2019-04-28T20:04:57.630Z,12.00
2019-04-28T20:07:28.247Z,11.70
2019-04-28T20:10:00.409Z,11.20
2019-04-28T20:12:31.567Z,11.30
2019-04-28T20:15:02.477Z,11.20
2019-04-28T20:17:35.525Z,11.00
2019-04-28T20:20:06.854Z,11.20
2019-04-28T20:22:38.008Z,11.30
2019-04-28T20:25:12.588Z,11.20
2019-04-28T20:27:43.763Z,11.00
2019-04-28T20:30:50.141Z,10.70
2019-04-28T20:33:22.204Z,10.40
2019-04-28T20:35:59.644Z,10.50
2019-04-28T20:46:44.931Z,10.00
2019-04-28T20:49:17.822Z,10.00
2019-04-28T20:52:02.575Z,10.00
2019-04-28T20:54:37.094Z,10.00
2019-04-28T20:57:08.307Z,10.10
2019-04-28T20:59:39.128Z,10.30
2019-04-28T21:08:52.995Z,10.30
2019-04-28T21:11:26.617Z,10.20
2019-04-28T21:13:57.295Z,9.80
2019-04-28T21:16:45.229Z,9.70
2019-04-28T21:19:16.074Z,9.80
2019-04-28T21:21:46.865Z,9.70
2019-04-28T21:24:18.061Z,9.80
2019-04-28T21:26:50.849Z,9.60
2019-04-28T21:29:21.551Z,9.80
2019-04-28T21:31:52.638Z,9.70
2019-04-28T21:34:23.352Z,9.40
2019-04-28T21:36:59.980Z,9.60
2019-04-28T21:39:30.675Z,9.70
2019-04-28T21:42:02.843Z,9.70
2019-04-28T21:44:49.091Z,9.80
2019-04-28T21:47:23.867Z,9.70
2019-04-28T21:49:54.611Z,9.00
2019-04-28T21:52:25.314Z,9.10
